Terminal Aerodrome Forecast
Issued by NWS Pueblo, CO

Home | Current Version | Previous Version | Text Only | Print | Product List | Glossary On
Versions: 1 2 3 4 5 6 7 8 9 10 11 12 13 14 15 16 17 18 19 20 21 22 23 24 25 26 27 28 29 30 31 32 33 34 35 36 37 38 39 40 41 42 43 44 45 46 47 48 49 50
000
FTUS45 KPUB 181135
TAFCOS
TAF
KCOS 181135Z 1812/1912 01010KT P6SM VCSH BKN035 OVC050
      TEMPO 1812/1813 6SM -SHRASN BR BKN025
     FM181600 34012G22KT P6SM SCT060 BKN100
     FM181900 36012G22KT P6SM VCSH SCT050 BKN090
     FM190100 35010KT P6SM BKN120
     FM190900 34015G25KT P6SM SCT030 BKN050=

USA.gov is the U.S. government's official web portal to all federal, state and local government web resources and services.